Latest Weather Observations for Sydney Airport

IDN60901

Issued at 5:21 am EDT Friday 24 March 2017 (issued every 10 minutes, with the page automatically refreshed every 10 minutes)

About weather observations | Map of Sydney area stations | Latest observations for Sydney area | Other Formats
Station Details ID: 066037 Name: SYDNEY AIRPORT AMO Lat: -33.95 Lon: 151.17 Height: 6.0 m
Data from the previous 72 hours. | See also: Recent months at Sydney Airport
Date/Time
EDT
Temp
°C
App
Temp
°C
Dew
Point
°C
Rel
Hum
%
Delta-T
°C
Wind Press
QNH
hPa
Press
MSL
hPa
Rain since
9am
mm
Dir  Spd
km/h
Gust
km/h
Spd
kts
Gust
kts
24/05:00am 19.8 19.2 18.8 94 0.6 SSW 20 35 11 19 1018.5 1018.5 5.6
24/04:30am 20.2 19.8 18.1 88 1.3 S 17 20 9 11 1018.1 1018.1 5.6
24/04:00am 19.6 18.3 18.1 91 0.9 SE 22 32 12 17 1018.0 1018.0 5.6
24/03:47am 19.7 17.6 19.0 96 0.4 SE 28 35 15 19 1018.2 1018.2 5.6
24/03:30am 19.7 20.7 19.5 99 0.1 SSW 13 20 7 11 1018.3 1018.3 5.6
24/03:15am 19.4 21.0 19.2 99 0.1 SSW 9 13 5 7 1018.4 1018.4 5.6
24/03:00am 19.2 19.8 18.7 97 0.3 SW 13 17 7 9 1018.4 1018.4 5.2
24/02:30am 19.7 20.9 19.0 96 0.4 SSW 11 15 6 8 1018.5 1018.5 4.8
24/02:00am 19.8 21.3 18.8 94 0.6 S 9 13 5 7 1018.8 1018.8 4.8
24/01:30am 20.0 21.2 19.0 94 0.6 SSE 11 15 6 8 1018.9 1018.9 4.6
24/01:00am 20.1 19.9 19.4 96 0.4 SSE 19 26 10 14 1018.8 1018.8 4.6
24/12:30am 19.4 17.2 18.6 95 0.5 SSE 28 37 15 20 1018.6 1018.6 4.6
24/12:06am 19.5 16.1 19.0 97 0.3 S 35 52 19 28 1018.4 1018.4 4.6
24/12:03am 19.6 16.8 19.1 97 0.3 SSW 32 50 17 27 1018.5 1018.5 4.6
24/12:00am 19.6 17.2 19.1 97 0.3 SSW 30 39 16 21 1018.5 1018.5 4.6
 
Date/Time
EDT
Temp
°C
App
Temp
°C
Dew
Point
°C
Rel
Hum
%
Delta-T
°C
Wind Press
QNH
hPa
Press
MSL
hPa
Rain since
9am
mm
Dir  Spd
km/h
Gust
km/h
Spd
kts
Gust
kts
23/11:30pm 19.8 17.7 19.0 95 0.5 SSW 28 35 15 19 1018.7 1018.7 4.6
23/11:00pm 19.4 17.8 19.1 98 0.2 SSW 26 30 14 16 1018.9 1018.9 4.6
23/10:40pm 19.4 18.8 18.9 97 0.3 SW 20 28 11 15 1018.9 1018.9 4.4
23/10:30pm 19.5 19.0 19.0 97 0.3 SSW 20 30 11 16 1019.0 1019.0 4.2
23/10:00pm 19.5 17.7 18.8 96 0.4 SSW 26 30 14 16 1018.9 1018.9 4.0
23/09:30pm 19.7 17.7 19.2 97 0.3 SW 28 35 15 19 1018.8 1018.8 4.0
23/09:00pm 19.8 18.6 19.3 97 0.3 SSW 24 30 13 16 1018.5 1018.5 3.6
23/08:46pm 19.9 19.2 19.6 98 0.2 SW 22 30 12 16 1018.4 1018.4 3.2
23/08:30pm 19.6 19.3 19.1 97 0.3 SW 19 28 10 15 1018.3 1018.3 3.0
23/08:00pm 19.8 19.4 19.3 97 0.3 SSW 20 30 11 16 1017.6 1017.6 3.0
23/07:30pm 20.0 19.7 19.5 97 0.3 SSW 20 28 11 15 1017.1 1017.1 3.0
23/07:00pm 19.9 19.3 19.7 99 0.1 SW 22 26 12 14 1017.2 1017.2 3.0
23/06:30pm 19.7 19.0 19.5 99 0.1 SSW 22 26 12 14 1017.3 1017.3 2.8
23/06:00pm 19.7 19.0 19.5 99 0.1 SW 22 28 12 15 1017.5 1017.5 1.8
23/05:30pm 20.2 18.7 19.5 96 0.4 SW 26 32 14 17 1017.5 1017.5 0.4
23/05:00pm 20.4 20.1 19.6 95 0.5 SSW 20 26 11 14 1017.3 1017.3 0.4
23/04:30pm 20.4 19.3 19.4 94 0.6 SSW 24 33 13 18 1017.3 1017.3 0.4
23/04:00pm 20.4 19.2 19.2 93 0.8 SSW 24 30 13 16 1017.3 1017.3 0.2
23/03:30pm 21.1 19.9 19.2 89 1.2 SSW 24 30 13 16 1017.5 1017.5 0.2
23/03:00pm 21.5 19.4 18.9 85 1.6 SSW 28 33 15 18 1017.5 1017.5 0.2
23/02:30pm 21.5 19.3 18.7 84 1.8 SSW 28 39 15 21 1017.6 1017.6 0.2
23/02:00pm 21.9 20.2 18.9 83 1.9 SSW 26 43 14 23 1017.8 1017.8 0.2
23/01:30pm 21.6 19.7 18.6 83 1.9 SSW 26 32 14 17 1018.5 1018.5 0.2
23/01:00pm 22.0 20.3 19.0 83 1.9 SSW 26 32 14 17 1018.8 1018.8 0.2
23/12:30pm 21.6 19.3 18.4 82 2.0 SSW 28 41 15 22 1019.1 1019.1 0.2
23/12:20pm 22.0 19.8 18.6 81 2.1 SSW 28 48 15 26 1019.1 1019.1 0.2
23/12:00pm 22.1 20.3 18.7 81 2.1 SSW 26 37 14 20 1019.2 1019.2 0.2
23/11:30am 21.8 19.9 18.6 82 2.0 SSW 26 33 14 18 1019.2 1019.2 0.2
23/11:00am 22.0 19.9 19.0 83 1.9 SSW 28 37 15 20 1019.2 1019.2 0.0
23/10:30am 22.0 20.0 18.4 80 2.3 SSW 26 33 14 18 1019.0 1019.0 0.0
23/10:00am 21.9 19.6 18.5 81 2.1 SSW 28 37 15 20 1018.8 1018.8 0.0
23/09:30am 21.4 19.4 18.4 83 1.9 SSW 26 33 14 18 1018.7 1018.7 0.0
23/09:00am 21.2 18.3 18.0 82 2.0 SSW 30 35 16 19 1018.5 1018.5 7.4
23/08:30am 21.3 19.7 18.3 83 1.9 SW 24 32 13 17 1018.3 1018.3 7.4
23/08:00am 21.2 19.2 18.4 84 1.7 SSW 26 35 14 19 1017.9 1017.9 7.4
23/07:30am 21.2 19.0 18.6 85 1.6 SSW 28 35 15 19 1017.6 1017.6 7.4
23/07:00am 21.1 18.3 18.3 84 1.7 SSW 30 37 16 20 1017.2 1017.2 7.4
23/06:30am 21.1 18.4 18.5 85 1.6 SSW 30 46 16 25 1017.1 1017.1 7.4
23/06:00am 21.1 18.4 18.5 85 1.6 SSW 30 35 16 19 1016.8 1016.8 7.4
23/05:30am 21.2 19.0 18.8 86 1.5 SSW 28 37 15 20 1016.5 1016.5 7.4
23/05:00am 21.2 19.0 18.8 86 1.5 SSW 28 39 15 21 1016.1 1016.1 7.4
23/04:30am 21.5 19.0 18.9 85 1.6 SSW 30 35 16 19 1016.2 1016.2 7.4
23/04:00am 21.2 19.1 18.9 87 1.4 SSW 28 39 15 21 1016.4 1016.4 7.4
23/03:30am 21.3 19.7 19.2 88 1.3 SSW 26 33 14 18 1016.1 1016.1 7.4
23/03:00am 21.4 18.7 19.3 88 1.3 SSW 32 39 17 21 1016.1 1016.1 7.4
23/02:30am 21.4 18.2 19.5 89 1.2 SSW 35 48 19 26 1016.3 1016.3 7.4
23/02:00am 21.4 17.6 19.7 90 1.1 SSW 39 54 21 29 1016.3 1016.3 7.4
23/01:30am 21.9 18.2 20.0 89 1.2 SSW 39 46 21 25 1016.2 1016.2 7.4
23/01:00am 21.8 19.0 20.3 91 1.0 SSW 35 50 19 27 1016.1 1016.1 7.4
23/12:30am 21.7 19.6 20.5 93 0.8 SSW 32 39 17 21 1016.2 1016.2 7.4
23/12:00am 21.8 19.7 21.0 95 0.5 SSW 33 43 18 23 1016.2 1016.2 7.4
 
Date/Time
EDT
Temp
°C
App
Temp
°C
Dew
Point
°C
Rel
Hum
%
Delta-T
°C
Wind Press
QNH
hPa
Press
MSL
hPa
Rain since
9am
mm
Dir  Spd
km/h
Gust
km/h
Spd
kts
Gust
kts
22/11:30pm 21.9 20.1 21.2 96 0.5 SSW 32 41 17 22 1016.2 1016.2 7.4
22/11:00pm 22.3 20.5 21.5 95 0.5 S 33 43 18 23 1016.2 1016.2 7.4
22/10:30pm 22.4 21.1 21.4 94 0.7 S 30 48 16 26 1016.1 1016.1 7.4
22/10:00pm 22.6 21.2 21.9 96 0.5 S 32 39 17 21 1016.0 1016.0 7.4
22/09:30pm 22.7 21.6 22.4 98 0.2 S 32 41 17 22 1015.2 1015.2 7.4
22/09:00pm 22.4 21.8 21.2 93 0.8 SSW 26 32 14 17 1014.9 1014.9 7.4
22/08:30pm 21.8 22.4 21.1 96 0.5 SSW 19 32 10 17 1014.2 1014.2 7.4
22/08:00pm 22.3 24.3 20.8 91 1.0 W 11 24 6 13 1013.3 1013.3 7.4
22/07:30pm 21.7 22.5 20.7 94 0.6 W 17 22 9 12 1013.5 1013.5 7.4
22/07:00pm 22.3 22.9 21.1 93 0.8 WNW 19 24 10 13 1012.7 1012.7 7.4
22/06:30pm 22.7 22.2 20.8 89 1.2 ENE 24 28 13 15 1012.0 1012.0 7.4
22/06:00pm 21.6 21.6 20.9 96 0.5 NE 22 28 12 15 1012.1 1012.1 7.4
22/05:45pm 21.3 21.6 20.8 97 0.3 SSE 20 30 11 16 1013.3 1013.3 7.4
22/05:36pm 20.9 18.7 20.4 97 0.3 SSW 32 41 17 22 1013.5 1013.5 6.8
22/05:30pm 21.2 17.7 20.4 95 0.5 SSW 39 57 21 31 1013.7 1013.7 5.2
22/05:29pm 21.5 17.8 20.7 95 0.5 SW 41 57 22 31 1013.7 1013.7 4.6
22/05:25pm 21.8 17.1 20.6 93 0.8 SW 46 57 25 31 1013.5 1013.5 3.6
22/05:12pm 24.0 23.8 22.8 93 0.8 W 28 50 15 27 1013.2 1013.2 2.8
22/05:00pm 24.0 26.4 22.3 90 1.1 W 13 20 7 11 1012.5 1012.5 2.4
22/04:30pm 25.4 27.5 20.9 76 3.0 ENE 11 19 6 10 1011.7 1011.7 0.4
22/04:00pm 28.8 28.9 20.3 60 5.6 ESE 20 28 11 15 1010.1 1010.1 0.0
22/03:56pm 28.7 29.0 20.4 60 5.5 SE 19 28 10 15 1010.3 1010.3 0.0
22/03:30pm 29.5 29.8 20.4 58 6.0 SE 19 24 10 13 1010.4 1010.4 0.0
22/03:00pm 30.9 32.1 22.5 61 5.7 SE 20 26 11 14 1010.6 1010.6 0.0
22/02:30pm 31.4 34.4 22.7 60 6.0 ESE 11 15 6 8 1010.6 1010.6 0.0
22/02:00pm 30.2 33.1 21.8 60 5.7 S 9 13 5 7 1011.1 1011.1 0.0
22/01:30pm 29.5 33.7 22.5 66 4.8 E 4 7 2 4 1011.3 1011.3 0.0
22/01:00pm 29.4 32.7 21.9 64 5.1 NNW 7 11 4 6 1011.3 1011.3 0.0
22/12:30pm 30.3 33.5 23.0 65 5.0 NW 11 17 6 9 1011.5 1011.5 0.0
22/12:00pm 28.6 31.9 22.6 70 4.1 NW 9 15 5 8 1012.0 1012.0 0.0
22/11:30am 27.7 30.4 22.2 72 3.7 NW 11 15 6 8 1012.4 1012.4 0.0
22/11:00am 26.9 29.6 22.1 75 3.2 NW 11 15 6 8 1012.8 1012.8 0.0
22/10:30am 26.4 28.9 21.8 76 3.1 NW 11 17 6 9 1012.8 1012.8 0.0
22/10:00am 26.1 29.1 22.0 78 2.7 WNW 9 13 5 7 1012.8 1012.8 0.0
22/09:30am 25.9 28.9 22.0 79 2.6 NW 9 15 5 8 1012.6 1012.6 0.0
22/09:00am 25.4 29.1 22.5 84 2.0 NW 7 11 4 6 1012.4 1012.4 29.2
22/08:30am 23.5 26.5 21.9 91 1.1 W 9 11 5 6 1012.2 1012.2 29.2
22/08:00am 24.9 28.0 22.2 85 1.8 WNW 9 15 5 8 1011.8 1011.8 29.2
22/07:30am 24.2 27.0 22.3 89 1.3 NNW 11 15 6 8 1011.5 1011.5 29.2
22/07:00am 23.9 26.2 22.0 89 1.3 NNW 13 17 7 9 1011.2 1011.2 29.2
22/06:30am 24.0 26.4 22.3 90 1.1 N 13 15 7 8 1010.8 1010.8 29.2
22/06:00am 23.5 25.9 22.3 93 0.8 NNE 13 17 7 9 1010.6 1010.6 29.2
22/05:30am 23.2 26.7 22.2 94 0.7 NNW 7 11 4 6 1010.5 1010.5 -
22/05:00am 23.1 25.8 22.1 94 0.7 NNW 11 15 6 8 1010.4 1010.4 -
22/04:30am 23.0 25.6 22.0 94 0.7 NNW 11 13 6 7 1010.2 1010.2 -
22/04:00am 23.0 24.9 22.0 94 0.7 WNW 15 19 8 10 1010.2 1010.2 -
22/03:30am 23.0 24.6 22.2 95 0.5 NW 17 24 9 13 1010.5 1010.5 -
22/03:00am 23.1 25.6 22.4 96 0.5 WNW 13 17 7 9 1010.6 1010.6 0.2
22/02:30am 23.2 25.2 22.2 94 0.7 NW 15 19 8 10 1010.7 1010.7 -
22/02:00am 23.2 24.5 22.4 95 0.5 NW 19 24 10 13 1011.3 1011.3 -
22/01:30am 23.1 24.9 22.6 97 0.3 WNW 17 22 9 12 1011.8 1011.8 -
22/01:00am 23.1 26.2 22.9 99 0.1 WNW 11 13 6 7 1012.0 1012.0 -
22/12:30am 23.0 25.3 22.7 98 0.2 NW 15 20 8 11 1012.2 1012.2 -
22/12:00am 23.2 25.9 22.9 98 0.2 NNW 13 17 7 9 1012.5 1012.5 -
 
Date/Time
EDT
Temp
°C
App
Temp
°C
Dew
Point
°C
Rel
Hum
%
Delta-T
°C
Wind Press
QNH
hPa
Press
MSL
hPa
Rain since
9am
mm
Dir  Spd
km/h
Gust
km/h
Spd
kts
Gust
kts
21/11:30pm 23.4 25.0 22.9 97 0.3 NW 19 26 10 14 1012.7 1012.7 -
21/11:00pm 23.4 25.0 22.2 93 0.8 NW 17 20 9 11 1013.0 1013.0 -
21/10:30pm 23.8 26.7 23.1 96 0.5 NW 13 17 7 9 1013.1 1013.1 -
21/10:00pm 24.3 27.3 23.3 94 0.7 N 13 19 7 10 1012.9 1012.9 -
21/09:30pm 24.4 26.5 23.7 96 0.5 N 19 26 10 14 1013.1 1013.1 -
21/09:00pm 24.2 25.1 23.3 95 0.6 NE 24 30 13 16 1012.7 1012.7 29.0
21/08:30pm 24.2 26.8 24.0 99 0.1 NE 17 19 9 10 1012.9 1012.9 -
21/08:00pm 23.7 26.4 23.5 99 0.1 ENE 15 20 8 11 1012.9 1012.9 -
21/07:49pm 23.7 25.6 23.5 99 0.1 NE 19 22 10 12 1012.5 1012.5 -
21/07:30pm 24.0 28.5 23.7 98 0.2 NW 6 11 3 6 1013.2 1013.2 -
21/07:00pm 23.7 27.9 23.2 97 0.3 E 6 9 3 5 1013.2 1013.2 -
21/06:30pm 23.5 27.0 22.8 96 0.5 NE 9 13 5 7 1012.7 1012.7 -
21/06:00pm 23.0 26.0 22.7 98 0.2 ESE 11 15 6 8 1012.5 1012.5 -
21/05:46pm 22.8 24.6 21.8 94 0.7 SSW 15 22 8 12 1012.6 1012.6 25.0
21/05:30pm 22.9 24.0 22.4 97 0.3 N 20 32 11 17 1012.9 1012.9 0.0
21/05:24pm 23.8 26.6 23.6 99 0.1 N 15 20 8 11 1012.8 1012.8 10.8
21/05:18pm 24.7 28.7 23.8 95 0.6 NNE 9 13 5 7 1013.0 1013.0 3.8
21/05:14pm 25.3 29.4 23.9 92 1.0 NNE 9 13 5 7 1012.9 1012.9 0.6
21/05:00pm 25.2 27.5 22.7 86 1.7 ENE 15 19 8 10 1012.3 1012.3 0.0
21/04:35pm 25.7 28.2 22.4 82 2.2 ENE 13 15 7 8 1012.6 1012.6 0.0
21/04:30pm 25.9 28.5 22.6 82 2.2 ENE 13 17 7 9 1012.6 1012.6 0.0
21/04:00pm 26.4 27.1 21.6 75 3.2 ENE 20 26 11 14 1012.0 1012.0 0.0
21/03:30pm 27.3 28.2 22.0 73 3.6 E 20 24 11 13 1012.2 1012.2 0.0
21/03:00pm 27.4 29.0 22.1 73 3.6 ENE 17 22 9 12 1012.4 1012.4 0.0
21/02:30pm 27.7 29.0 22.6 74 3.5 ENE 20 26 11 14 1012.7 1012.7 0.0
21/02:00pm 26.7 26.8 21.9 75 3.2 ENE 24 30 13 16 1013.1 1013.1 0.0
21/01:30pm 28.1 28.6 21.9 69 4.2 NE 22 26 12 14 1013.4 1013.4 0.0
21/01:00pm 27.6 31.9 21.9 71 3.8 NE 2 15 1 8 1013.8 1013.8 -
21/12:30pm 27.7 30.2 21.7 70 4.0 NNE 11 17 6 9 1014.1 1014.1 0.0
21/12:00pm 27.4 30.1 22.1 73 3.6 ENE 11 17 6 9 1014.7 1014.7 0.0
21/11:30am 26.1 30.7 21.7 77 2.9 CALM 0 0 0 0 1015.2 1015.2 0.0
21/11:00am 26.3 29.2 21.7 76 3.1 NE 9 13 5 7 1015.4 1015.4 0.0
21/10:30am 25.4 27.4 21.5 79 2.6 NE 13 17 7 9 1015.5 1015.5 0.0
21/10:00am 25.3 27.2 21.4 79 2.6 NNE 13 15 7 8 1015.8 1015.8 0.0
21/09:30am 25.3 27.2 21.4 79 2.6 NE 13 17 7 9 1015.7 1015.7 0.0
21/09:00am 25.7 27.5 21.8 79 2.6 NNE 15 19 8 10 1015.6 1015.6 0.0
21/08:30am 25.1 26.4 21.6 81 2.3 NNE 17 19 9 10 1015.6 1015.6 -
21/08:00am 24.8 25.8 21.7 83 2.1 NNE 19 26 10 14 1015.4 1015.4 -
21/07:30am 24.8 25.9 21.9 84 1.9 NNE 19 22 10 12 1015.3 1015.3 -
21/07:00am 24.7 26.2 22.0 85 1.8 NNE 17 20 9 11 1015.1 1015.1 -
21/06:50am 24.5 26.3 21.8 85 1.8 NNE 15 22 8 12 1015.1 1015.1 0.0
21/06:30am 24.4 26.0 22.1 87 1.5 NNE 17 22 9 12 1014.8 1014.8 -
21/06:00am 23.8 25.7 22.1 90 1.1 NNE 15 19 8 10 1014.4 1014.4 0.0
21/05:30am 23.5 24.9 21.9 91 1.1 NNE 17 22 9 12 1014.3 1014.3 -

Latest Capital City Observations: Canberra | Sydney | Melbourne | Brisbane | Adelaide | Perth | Hobart | Darwin

Other Formats:

Comma delimited format used in spreadsheet applications
http://www.bom.gov.au/fwo/IDN60901/IDN60901.94767.axf

JavaScript Object Notation format (JSON) in row-major order
http://www.bom.gov.au/fwo/IDN60901/IDN60901.94767.json